Benito Juarez, Argentina
Current Conditions -  °F | °C
As of 6:00 AM on Saturday 25 Oct 2014 (Local Time) from SAZM Reporting Station
Haze Haze  
Wind Chill: 57°   Ceiling: 1000
Heat Index: 57°   Visibility: 3mi
Dew Point: 55°   Wind: 6mph
Humidity: 94%   Direction: 320°NW
Pressure: 29.97"   Gusts: NA
Location:  37.67°S, 59.8°W
Report Text: SAZM 250900Z 32005KT 5000 BR SCT004 OVC01014/13 Q1015
Loading
Personal Weather Stations






























Interactive Weather Map
Tropical Storm Tracking
New forecast layout! Learn more

10-Day Weather Forecast

Advertisements
Track Severe Weather on mobile